Time;durP1;ratioP1;P1;durP2;ratioP2;P2;SDS_P1;SDS_P2;PMS_P1;PMS_P2;Temp;Humidity;BMP_temperature;BMP_pressure;BME280_temperature;BME280_humidity;BME280_pressure;Samples;Min_cycle;Max_cycle;Signal;HPM_P1;HPM_P2
2022/07/12 00:02:01;;;;;;;1.27;1.10;;;16.60;88.80;;;;;;4888735;29;20811;-65
2022/07/12 00:04:27;;;;;;;1.77;1.20;;;16.50;89.50;;;;;;4886986;29;20365;-65
2022/07/12 00:06:53;;;;;;;3.73;2.00;;;16.50;89.60;;;;;;4885968;29;20035;-65
2022/07/12 00:09:18;;;;;;;1.48;1.38;;;16.50;90.10;;;;;;4884753;29;20384;-65
2022/07/12 00:11:44;;;;;;;1.85;1.50;;;16.50;90.20;;;;;;4891186;29;20111;-65
2022/07/12 00:14:10;;;;;;;1.23;1.13;;;16.40;90.40;;;;;;4885685;29;20024;-65
2022/07/12 00:16:36;;;;;;;1.30;1.20;;;16.40;90.60;;;;;;4889951;29;20103;-65
2022/07/12 00:19:02;;;;;;;1.75;1.65;;;16.40;90.80;;;;;;4890452;29;20115;-65
2022/07/12 00:21:27;;;;;;;2.80;1.20;;;16.40;90.80;;;;;;4887902;29;20052;-65
2022/07/12 00:23:53;;;;;;;1.80;1.20;;;16.40;90.90;;;;;;4883923;29;20359;-65
2022/07/12 00:26:19;;;;;;;1.63;1.40;;;16.40;90.90;;;;;;4882948;29;20190;-65
2022/07/12 00:28:45;;;;;;;2.25;1.63;;;16.50;91.00;;;;;;4890788;29;20035;-65
2022/07/12 00:31:10;;;;;;;3.10;1.20;;;16.50;91.10;;;;;;4888545;29;20137;-65
2022/07/12 00:33:36;;;;;;;2.53;1.20;;;16.50;91.00;;;;;;4886744;29;20067;-65
2022/07/12 00:36:02;;;;;;;2.80;1.30;;;16.40;91.00;;;;;;4889025;29;20085;-65
2022/07/12 00:38:28;;;;;;;1.40;1.23;;;16.40;91.30;;;;;;4884323;29;20036;-65
2022/07/12 00:40:54;;;;;;;1.42;1.20;;;16.30;91.40;;;;;;4888945;29;20040;-66
2022/07/12 00:43:19;;;;;;;1.53;1.40;;;16.40;91.50;;;;;;4891374;29;20036;-65
2022/07/12 00:45:45;;;;;;;1.40;1.30;;;16.40;91.40;;;;;;4887516;29;20795;-65
2022/07/12 00:48:11;;;;;;;1.40;1.13;;;16.50;91.40;;;;;;4888934;29;20293;-66
2022/07/12 00:50:37;;;;;;;3.03;1.58;;;16.50;91.50;;;;;;4889521;29;20493;-65
2022/07/12 00:53:03;;;;;;;0.98;0.98;;;16.50;91.80;;;;;;4884907;29;20025;-66
2022/07/12 00:55:28;;;;;;;1.05;1.05;;;16.50;91.80;;;;;;4884800;29;20436;-66
2022/07/12 00:57:54;;;;;;;1.38;1.27;;;16.50;91.70;;;;;;4889652;29;20143;-65
2022/07/12 01:00:26;;;;;;;1.77;1.20;;;16.50;91.90;;;;;;4891752;29;20035;-65
2022/07/12 01:02:56;;;;;;;2.17;1.02;;;16.50;92.00;;;;;;4892409;29;20032;-65
2022/07/12 01:05:23;;;;;;;0.95;0.95;;;16.40;92.10;;;;;;4889765;29;20558;-65
2022/07/12 01:07:49;;;;;;;;;;;16.50;92.40;;;;;;4886673;29;20136;-65
2022/07/12 01:10:15;;;;;;;1.40;1.17;;;16.50;92.30;;;;;;4890896;29;19975;-65
2022/07/12 01:12:41;;;;;;;1.23;1.10;;;16.50;92.40;;;;;;4892144;29;20036;-65
2022/07/12 01:15:08;;;;;;;;;;;16.50;92.60;;;;;;4885713;29;20036;-65
2022/07/12 01:17:34;;;;;;;1.33;1.23;;;16.50;92.70;;;;;;4896543;29;19907;-65
2022/07/12 01:20:00;;;;;;;1.77;1.13;;;16.60;92.80;;;;;;4889432;29;20032;-65
2022/07/12 01:22:30;;;;;;;1.23;1.10;;;16.60;93.00;;;;;;4892230;29;20028;-65
2022/07/12 01:24:56;;;;;;;1.13;1.02;;;16.50;93.20;;;;;;4893645;29;20208;-65
2022/07/12 01:27:22;;;;;;;1.35;1.25;;;16.50;93.40;;;;;;4888099;29;20589;-65
2022/07/12 01:29:47;;;;;;;1.33;1.20;;;16.40;93.70;;;;;;4889639;29;20051;-66
2022/07/12 01:32:25;;;;;;;2.10;1.23;;;16.50;93.70;;;;;;4891635;29;20108;-65
2022/07/12 01:34:52;;;;;;;1.75;0.95;;;16.50;93.80;;;;;;4892209;29;20099;-65
2022/07/12 01:37:18;;;;;;;1.23;1.10;;;16.30;94.30;;;;;;4885863;29;20084;-66
2022/07/12 01:39:58;;;;;;;3.45;1.27;;;16.20;94.70;;;;;;4889221;29;20417;-65
2022/07/12 01:42:26;;;;;;;1.10;1.00;;;16.20;95.10;;;;;;4893425;29;20473;-65
2022/07/12 01:44:53;;;;;;;1.15;1.08;;;16.20;95.20;;;;;;4890416;29;20043;-65
2022/07/12 01:47:23;;;;;;;2.58;0.93;;;16.30;95.40;;;;;;4883805;29;21008;-65
2022/07/12 01:49:49;;;;;;;1.40;1.27;;;16.40;95.50;;;;;;4893719;29;20040;-65
2022/07/12 01:52:15;;;;;;;1.60;1.10;;;16.50;95.40;;;;;;4892317;29;20027;-66
2022/07/12 01:54:42;;;;;;;1.92;1.10;;;16.60;95.40;;;;;;4889065;29;20040;-66
2022/07/12 01:57:08;;;;;;;1.60;1.00;;;16.70;95.30;;;;;;4889530;29;20028;-65
2022/07/12 01:59:34;;;;;;;1.10;1.00;;;16.80;95.20;;;;;;4888775;29;20029;-65
2022/07/12 02:02:01;;;;;;;1.17;1.08;;;16.90;95.10;;;;;;4890145;29;20032;-65
2022/07/12 02:04:27;;;;;;;1.48;1.17;;;16.90;95.40;;;;;;4886858;29;20031;-65
2022/07/12 02:06:54;;;;;;;;;;;16.90;95.50;;;;;;4889008;29;20552;-65
2022/07/12 02:09:19;;;;;;;2.38;0.90;;;16.90;95.30;;;;;;4891293;29;19923;-66
2022/07/12 02:11:46;;;;;;;1.57;1.43;;;16.80;95.40;;;;;;4887996;29;20024;-66
2022/07/12 02:14:13;;;;;;;1.42;1.15;;;16.80;95.70;;;;;;4888476;29;20021;-65
2022/07/12 02:16:39;;;;;;;1.23;1.13;;;16.60;96.00;;;;;;4889547;29;20035;-66
2022/07/12 02:19:05;;;;;;;1.33;1.23;;;16.40;96.30;;;;;;4890293;29;20514;-65
2022/07/12 02:21:31;;;;;;;1.13;1.00;;;16.40;96.60;;;;;;4887860;29;20044;-66
2022/07/12 02:23:56;;;;;;;2.30;1.10;;;16.40;96.50;;;;;;4890921;29;20269;-66
2022/07/12 02:26:22;;;;;;;3.27;1.60;;;16.40;96.50;;;;;;4885976;29;20039;-65
2022/07/12 02:28:48;;;;;;;3.15;1.58;;;16.30;96.70;;;;;;4891842;29;20029;-65
2022/07/12 02:31:13;;;;;;;1.43;1.33;;;16.20;97.00;;;;;;4881396;29;20434;-65
2022/07/12 02:33:39;;;;;;;4.80;1.30;;;16.20;97.20;;;;;;4890645;29;20265;-65
2022/07/12 02:36:05;;;;;;;1.20;1.10;;;16.20;97.40;;;;;;4890289;29;20332;-66
2022/07/12 02:38:31;;;;;;;1.27;1.15;;;16.20;97.50;;;;;;4889285;29;20264;-66
2022/07/12 02:40:56;;;;;;;1.10;0.93;;;16.20;97.50;;;;;;4891046;29;20025;-65
2022/07/12 02:43:27;;;;;;;1.42;0.98;;;16.20;97.70;;;;;;4892555;29;20020;-66
2022/07/12 02:45:55;;;;;;;1.98;1.70;;;16.30;97.60;;;;;;4884839;29;20750;-66
2022/07/12 02:48:21;;;;;;;2.88;1.20;;;16.20;97.60;;;;;;4892040;29;20083;-65
2022/07/12 02:50:46;;;;;;;1.10;1.10;;;16.30;97.60;;;;;;4889825;29;20025;-65
2022/07/12 02:53:12;;;;;;;1.25;1.05;;;16.30;97.50;;;;;;4887348;29;20115;-65
2022/07/12 02:55:38;;;;;;;1.25;1.20;;;16.30;97.80;;;;;;4885600;29;21162;-65
2022/07/12 02:58:07;;;;;;;3.90;1.40;;;16.40;97.70;;;;;;4892007;29;20549;-65
2022/07/12 03:14:01;;;;;;;4.45;1.40;;;16.80;97.50;;;;;;4891953;29;20030;-65
2022/07/12 03:16:27;;;;;;;1.93;1.53;;;16.70;97.50;;;;;;4888086;29;20032;-66
2022/07/12 03:18:52;;;;;;;2.42;1.20;;;16.70;97.70;;;;;;4889575;29;20046;-66
2022/07/12 03:21:18;;;;;;;2.03;1.30;;;16.70;97.90;;;;;;4888134;29;20028;-65
2022/07/12 03:23:44;;;;;;;1.63;1.27;;;16.70;98.00;;;;;;4887927;29;20052;-65
2022/07/12 03:26:09;;;;;;;2.45;1.38;;;16.70;97.80;;;;;;4885151;29;20048;-65
2022/07/12 03:28:35;;;;;;;2.95;1.33;;;16.80;97.70;;;;;;4889490;29;20119;-65
2022/07/12 03:31:01;;;;;;;1.55;1.23;;;16.90;97.60;;;;;;4885454;29;20894;-65
2022/07/12 03:33:26;;;;;;;1.33;1.17;;;16.90;97.50;;;;;;4888207;29;20103;-65
2022/07/12 03:35:52;;;;;;;2.17;1.17;;;17.00;97.30;;;;;;4886673;29;20801;-65
2022/07/12 03:38:18;;;;;;;1.48;1.23;;;16.90;97.50;;;;;;4889676;29;20036;-66
2022/07/12 03:40:44;;;;;;;1.30;1.20;;;16.70;97.90;;;;;;4886269;29;20037;-65
2022/07/12 03:43:09;;;;;;;1.48;1.23;;;16.80;97.80;;;;;;4889528;29;20487;-65
2022/07/12 03:45:35;;;;;;;5.87;1.50;;;16.90;97.60;;;;;;4890504;29;20050;-66
2022/07/12 03:48:00;;;;;;;1.20;1.10;;;17.00;97.60;;;;;;4881641;29;20039;-65
2022/07/12 03:50:26;;;;;;;1.70;1.27;;;17.00;97.40;;;;;;4890207;29;20306;-65
2022/07/12 03:52:52;;;;;;;1.40;1.30;;;17.20;97.30;;;;;;4880974;29;20031;-65
2022/07/12 03:55:17;;;;;;;1.20;1.10;;;17.10;97.40;;;;;;4885937;29;20276;-65
2022/07/12 03:57:43;;;;;;;2.00;1.48;;;17.10;97.40;;;;;;4886451;29;20261;-66
2022/07/12 04:00:11;;;;;;;2.47;1.20;;;17.20;97.30;;;;;;4883910;29;21237;-66
2022/07/12 04:02:39;;;;;;;1.38;1.17;;;17.20;97.30;;;;;;4885010;29;20034;-65
2022/07/12 04:05:06;;;;;;;1.50;1.23;;;17.30;97.10;;;;;;4886116;29;20024;-66
2022/07/12 04:07:32;;;;;;;1.38;1.25;;;17.40;97.00;;;;;;4886002;29;20147;-66
2022/07/12 04:09:57;;;;;;;1.73;1.40;;;17.50;96.70;;;;;;4882785;29;20122;-66
2022/07/12 04:12:23;;;;;;;1.37;1.27;;;17.60;96.50;;;;;;4885714;29;20268;-66
2022/07/12 04:14:48;;;;;;;1.20;1.10;;;17.60;96.40;;;;;;4890846;29;20029;-66
2022/07/12 04:17:14;;;;;;;1.20;1.10;;;17.70;96.40;;;;;;4886027;29;20041;-66
2022/07/12 04:19:40;;;;;;;1.45;1.35;;;17.60;96.40;;;;;;4886572;29;20260;-65
2022/07/12 04:22:05;;;;;;;2.13;1.00;;;17.60;96.50;;;;;;4885821;29;20092;-65
2022/07/12 04:24:32;;;;;;;1.30;0.97;;;17.50;96.80;;;;;;4885760;29;20113;-66
2022/07/12 04:26:58;;;;;;;1.40;1.30;;;17.50;96.90;;;;;;4884014;29;20786;-66
2022/07/12 04:42:59;;;;;;;1.55;1.30;;;17.60;96.60;;;;;;4887489;29;20095;-64
2022/07/12 04:45:25;;;;;;;1.40;1.30;;;17.60;96.50;;;;;;4890635;29;20031;-64
2022/07/12 04:47:51;;;;;;;1.35;1.20;;;17.70;96.20;;;;;;4892556;29;20383;-65
2022/07/12 04:50:17;;;;;;;1.48;1.30;;;17.70;96.10;;;;;;4884487;29;20534;-65
2022/07/12 04:52:42;;;;;;;1.48;1.35;;;17.70;96.10;;;;;;4892906;29;20680;-79
2022/07/12 04:55:08;;;;;;;1.95;1.30;;;17.70;96.20;;;;;;4895098;29;20047;-79
2022/07/12 04:57:35;;;;;;;1.83;1.10;;;17.70;96.10;;;;;;4891375;29;20055;-78
2022/07/12 05:00:07;;;;;;;1.90;1.23;;;17.80;95.90;;;;;;4896975;29;21114;-80
2022/07/12 05:02:33;;;;;;;1.33;1.20;;;17.80;95.80;;;;;;5751169;23;20019;-80
2022/07/12 05:05:15;;;;;;;2.38;2.05;;;17.90;95.90;;;;;;4902345;29;20028;-81
2022/07/12 05:21:17;;;;;;;1.67;1.35;;;19.00;93.40;;;;;;5049102;23;20047;-82
2022/07/12 05:29:45;;;;;;;1.23;1.20;;;19.60;92.50;;;;;;5073512;23;20052;-76
2022/07/12 05:32:11;;;;;;;4.95;1.20;;;19.80;92.40;;;;;;4900778;29;20027;-77
2022/07/12 05:34:38;;;;;;;1.85;1.13;;;20.00;91.50;;;;;;4895739;29;20032;-77
2022/07/12 05:37:05;;;;;;;1.20;1.10;;;20.30;91.40;;;;;;4897846;29;20107;-77
2022/07/12 05:39:32;;;;;;;3.30;1.10;;;20.60;91.10;;;;;;4902291;29;20115;-76
2022/07/12 05:41:58;;;;;;;1.20;1.00;;;20.90;89.40;;;;;;4885249;29;20028;-77
2022/07/12 05:44:24;;;;;;;1.10;1.00;;;21.20;87.90;;;;;;4903422;29;20103;-76
2022/07/12 05:46:51;;;;;;;4.35;1.45;;;21.60;85.50;;;;;;4898473;29;20033;-77
2022/07/12 05:49:17;;;;;;;0.93;0.90;;;22.20;84.50;;;;;;4902439;29;20036;-76
2022/07/12 05:54:30;;;;;;;4.63;1.33;;;23.10;80.20;;;;;;4896741;29;20390;-77
2022/07/12 05:57:02;;;;;;;1.92;0.98;;;23.60;77.40;;;;;;4901063;29;20099;-76
2022/07/12 05:59:39;;;;;;;3.33;1.08;;;24.30;75.40;;;;;;4897972;29;20024;-76
2022/07/12 06:02:13;;;;;;;1.15;0.80;;;25.10;72.60;;;;;;4898287;29;20034;-76
2022/07/12 06:04:41;;;;;;;0.98;0.88;;;25.60;71.30;;;;;;4880378;29;20115;-77
2022/07/12 06:07:09;;;;;;;1.00;0.93;;;26.20;68.00;;;;;;4897692;29;20032;-77
2022/07/12 06:09:36;;;;;;;2.55;1.15;;;27.30;65.70;;;;;;4881742;29;20434;-76
2022/07/12 06:12:04;;;;;;;0.85;0.85;;;28.00;64.00;;;;;;4898691;29;20373;-76
2022/07/12 06:14:30;;;;;;;0.98;0.90;;;27.80;61.50;;;;;;4878775;29;20450;-76
2022/07/12 06:16:56;;;;;;;2.08;1.65;;;28.00;59.80;;;;;;4882580;29;20035;-76
2022/07/12 06:19:23;;;;;;;1.23;0.73;;;27.60;60.20;;;;;;4896510;29;20024;-76
2022/07/12 06:21:50;;;;;;;1.20;1.00;;;27.30;58.60;;;;;;4899474;29;20801;-74
2022/07/12 06:24:16;;;;;;;1.15;0.90;;;27.00;59.10;;;;;;4905721;29;20035;-74
2022/07/12 06:26:41;;;;;;;;;;;26.60;59.30;;;;;;4900430;29;20033;-72
2022/07/12 06:29:07;;;;;;;4.03;1.63;;;25.90;59.50;;;;;;4893443;29;19919;-72
2022/07/12 06:31:34;;;;;;;;;;;25.80;60.90;;;;;;4898091;29;20032;-72
2022/07/12 06:33:59;;;;;;;1.02;0.77;;;26.00;60.10;;;;;;4893064;29;19911;-72
2022/07/12 06:36:25;;;;;;;;;;;26.40;59.50;;;;;;4881518;29;20036;-72
2022/07/12 06:38:51;;;;;;;2.47;0.90;;;26.20;59.70;;;;;;4895897;29;20345;-74
2022/07/12 06:41:16;;;;;;;;;;;26.40;58.50;;;;;;4900369;29;20553;-74
2022/07/12 06:43:42;;;;;;;2.00;0.80;;;26.40;58.60;;;;;;4896476;29;19980;-72
2022/07/12 06:46:08;;;;;;;1.25;1.00;;;26.30;60.00;;;;;;4883262;29;20032;-72
2022/07/12 06:48:33;;;;;;;1.50;0.95;;;26.60;58.90;;;;;;4896098;29;20038;-72
2022/07/12 06:50:59;;;;;;;1.10;0.80;;;26.70;58.80;;;;;;4895371;29;20111;-72
2022/07/12 06:53:24;;;;;;;;;;;26.60;59.50;;;;;;4884068;29;20111;-72
2022/07/12 06:55:50;;;;;;;1.20;0.85;;;26.50;60.30;;;;;;4875591;29;20041;-72
2022/07/12 06:58:17;;;;;;;;;;;26.50;58.80;;;;;;4879029;29;20331;-72
2022/07/12 07:00:43;;;;;;;0.90;0.90;;;26.40;59.70;;;;;;4894445;29;19922;-72
2022/07/12 07:03:08;;;;;;;;;;;26.20;59.60;;;;;;4901224;29;20039;-72
2022/07/12 07:05:36;;;;;;;0.70;0.70;;;25.50;59.90;;;;;;4896875;29;19970;-72
2022/07/12 07:08:02;;;;;;;0.93;0.80;;;25.60;60.00;;;;;;4892429;29;20046;-72
2022/07/12 07:10:29;;;;;;;1.10;0.80;;;25.10;60.90;;;;;;4895570;29;20082;-72
2022/07/12 07:12:54;;;;;;;0.88;0.60;;;25.30;61.80;;;;;;4894130;29;20044;-72
2022/07/12 07:15:20;;;;;;;;;;;25.40;61.10;;;;;;4891537;29;20056;-72
2022/07/12 07:17:46;;;;;;;1.67;0.60;;;25.60;60.70;;;;;;4893656;29;19994;-71
2022/07/12 07:20:12;;;;;;;;;;;25.60;59.90;;;;;;4893672;29;20032;-71
2022/07/12 07:22:39;;;;;;;0.95;0.77;;;25.80;60.10;;;;;;4892320;29;19915;-72
2022/07/12 07:25:06;;;;;;;0.52;0.52;;;25.90;59.50;;;;;;4894216;29;20735;-72
2022/07/12 07:27:32;;;;;;;1.58;0.88;;;25.10;60.70;;;;;;4890124;29;20111;-72
2022/07/12 07:32:44;;;;;;;0.80;0.80;;;25.30;60.60;;;;;;4895958;29;20040;-72
2022/07/12 07:35:11;;;;;;;1.88;1.02;;;25.20;60.50;;;;;;4899692;29;20023;-71
2022/07/12 07:37:36;;;;;;;;;;;25.20;61.40;;;;;;4894577;29;20033;-72
2022/07/12 07:40:03;;;;;;;1.08;0.70;;;25.30;61.40;;;;;;4878256;29;20344;-72
2022/07/12 07:42:29;;;;;;;1.83;0.90;;;25.60;61.40;;;;;;4892535;29;20107;-72
2022/07/12 07:44:55;;;;;;;1.38;0.80;;;25.30;61.70;;;;;;4895382;29;20031;-72
2022/07/12 07:47:21;;;;;;;;;;;25.40;62.10;;;;;;4892790;29;20120;-73
2022/07/12 07:49:47;;;;;;;0.70;0.70;;;25.60;61.70;;;;;;4897212;29;20019;-72
2022/07/12 07:52:13;;;;;;;0.90;0.80;;;25.70;61.30;;;;;;4895718;29;20024;-72
2022/07/12 07:54:39;;;;;;;1.50;0.90;;;25.80;59.30;;;;;;4877917;29;21596;-72
2022/07/12 07:57:04;;;;;;;;;;;26.00;58.60;;;;;;4892827;29;20056;-72
2022/07/12 07:59:30;;;;;;;2.25;0.70;;;26.20;58.80;;;;;;4894936;29;19986;-72
2022/07/12 08:01:56;;;;;;;;;;;26.00;58.80;;;;;;4892864;29;20035;-72
2022/07/12 08:04:21;;;;;;;1.42;0.75;;;26.20;58.10;;;;;;4900431;29;20029;-72
2022/07/12 08:06:48;;;;;;;;;;;26.40;58.40;;;;;;4900090;29;20465;-72
2022/07/12 08:09:14;;;;;;;2.90;1.00;;;26.50;58.30;;;;;;4900064;29;19950;-72
2022/07/12 08:11:40;;;;;;;;;;;26.60;57.80;;;;;;4890162;29;21517;-72
2022/07/12 08:14:06;;;;;;;6.53;1.40;;;25.80;57.70;;;;;;4894879;29;19918;-72
2022/07/12 08:16:33;;;;;;;1.38;0.93;;;26.00;58.00;;;;;;4899669;29;20016;-71
2022/07/12 08:18:59;;;;;;;1.77;0.82;;;26.60;57.60;;;;;;4898606;29;20055;-72
2022/07/12 08:21:25;;;;;;;;;;;26.10;56.90;;;;;;4897442;29;20478;-72
2022/07/12 08:23:50;;;;;;;1.63;0.90;;;26.10;58.40;;;;;;4902391;29;20421;-75
2022/07/12 08:26:16;;;;;;;0.90;0.70;;;27.80;56.80;;;;;;4902582;29;20398;-76
2022/07/12 08:28:43;;;;;;;3.22;0.98;;;28.60;54.70;;;;;;4904695;29;20044;-75
2022/07/12 08:31:10;;;;;;;2.50;0.80;;;29.40;53.40;;;;;;4902999;29;20454;-75
2022/07/12 08:33:36;;;;;;;0.68;0.68;;;29.50;52.30;;;;;;4899417;29;20032;-75
2022/07/12 08:36:02;;;;;;;1.50;0.90;;;29.60;53.00;;;;;;4885144;29;20119;-75
2022/07/12 08:38:30;;;;;;;1.98;0.70;;;29.60;52.90;;;;;;4902804;29;20095;-75
2022/07/12 08:41:01;;;;;;;1.10;0.70;;;30.00;52.10;;;;;;4902865;29;20023;-75
2022/07/12 08:43:27;;;;;;;1.02;0.80;;;29.50;52.60;;;;;;4903761;29;20732;-75
2022/07/12 08:46:01;;;;;;;1.17;0.57;;;29.90;52.40;;;;;;4903664;29;20054;-76
2022/07/12 08:48:30;;;;;;;1.25;0.93;;;30.30;50.90;;;;;;4885927;29;20036;-76
2022/07/12 08:51:08;;;;;;;1.48;0.80;;;29.00;51.50;;;;;;4885351;29;20036;-76
2022/07/12 08:53:34;;;;;;;1.13;0.70;;;30.00;52.30;;;;;;4878625;29;20066;-75
2022/07/12 08:56:00;;;;;;;1.05;0.65;;;31.40;49.40;;;;;;4886682;29;20087;-76
2022/07/12 08:58:26;;;;;;;1.05;0.60;;;31.10;50.20;;;;;;4886532;29;20390;-76
2022/07/12 09:00:52;;;;;;;1.98;0.80;;;31.30;49.50;;;;;;4885058;29;20024;-76
2022/07/12 09:03:20;;;;;;;4.95;1.00;;;30.50;49.10;;;;;;4903661;29;20378;-75
2022/07/12 09:05:53;;;;;;;1.88;0.70;;;28.90;50.10;;;;;;4902702;29;20111;-75
2022/07/12 09:08:33;;;;;;;1.45;0.90;;;26.80;52.70;;;;;;4904851;29;20032;-79
2022/07/12 09:11:01;;;;;;;2.28;0.70;;;25.70;55.30;;;;;;4900230;29;20016;-77
2022/07/12 09:13:46;;;;;;;1.13;0.93;;;25.80;56.30;;;;;;4884146;29;20020;-76
2022/07/12 09:16:20;;;;;;;1.00;0.90;;;26.20;55.50;;;;;;4902489;29;20108;-78
2022/07/12 09:18:50;;;;;;;0.95;0.77;;;27.20;55.20;;;;;;4902241;29;20032;-77
2022/07/12 09:22:08;;;;;;;1.35;0.80;;;27.00;54.00;;;;;;4904721;29;20043;-77
2022/07/12 09:24:33;;;;;;;0.90;0.70;;;26.80;54.00;;;;;;4892673;29;20051;-77
2022/07/12 09:27:04;;;;;;;1.08;0.80;;;25.80;55.00;;;;;;4900252;29;20036;-77
2022/07/12 09:29:31;;;;;;;4.88;1.20;;;26.20;54.10;;;;;;4896592;29;20032;-76
2022/07/12 09:37:46;;;;;;;1.50;0.90;;;26.50;55.00;;;;;;4904529;29;20064;-77
2022/07/12 09:40:12;;;;;;;1.75;0.95;;;26.40;54.20;;;;;;4900206;29;20024;-75
2022/07/12 09:42:45;;;;;;;3.42;0.82;;;26.40;53.90;;;;;;4901695;29;20901;-76
2022/07/12 09:45:14;;;;;;;0.90;0.60;;;26.00;55.00;;;;;;4895911;29;20626;-74
2022/07/12 09:47:48;;;;;;;3.15;0.80;;;26.20;55.10;;;;;;4900320;29;20032;-75
2022/07/12 09:50:14;;;;;;;1.63;0.93;;;26.30;55.30;;;;;;4900218;29;20066;-75
2022/07/12 09:52:41;;;;;;;;;;;26.20;54.80;;;;;;4900452;29;20108;-74
2022/07/12 09:55:09;;;;;;;1.70;0.90;;;26.20;54.40;;;;;;4901629;29;19911;-74
2022/07/12 09:57:40;;;;;;;0.88;0.88;;;26.20;54.60;;;;;;4895667;29;20025;-76
2022/07/12 10:00:09;;;;;;;1.40;1.30;;;26.80;53.50;;;;;;4900313;29;20655;-74
2022/07/12 10:02:35;;;;;;;2.28;1.08;;;27.70;53.20;;;;;;4880485;29;20056;-74
2022/07/12 10:05:04;;;;;;;2.70;0.80;;;27.60;52.20;;;;;;4903066;29;20033;-74
2022/07/12 10:07:31;;;;;;;1.83;0.85;;;28.30;51.10;;;;;;4877829;29;20470;-74
2022/07/12 10:09:58;;;;;;;2.78;0.70;;;28.10;50.80;;;;;;4896232;29;20131;-74
2022/07/12 10:12:24;;;;;;;1.17;0.80;;;29.10;49.80;;;;;;4901178;29;20024;-74
2022/07/12 10:14:56;;;;;;;1.10;0.60;;;28.10;49.50;;;;;;4905377;29;20150;-74
2022/07/12 10:17:24;;;;;;;1.88;0.88;;;28.40;50.70;;;;;;4902267;29;20039;-75
2022/07/12 10:20:13;;;;;;;0.70;0.70;;;30.50;49.70;;;;;;4904142;29;20033;-75
2022/07/12 10:22:39;;;;;;;1.70;0.70;;;32.20;47.90;;;;;;4901351;29;20033;-74
2022/07/12 10:25:25;;;;;;;0.75;0.73;;;34.70;44.80;;;;;;4900328;29;20076;-75
2022/07/12 10:27:53;;;;;;;1.30;0.60;;;34.90;41.80;;;;;;4888011;29;20051;-75
2022/07/12 10:30:23;;;;;;;2.33;0.63;;;33.80;42.20;;;;;;4883336;29;20053;-75
2022/07/12 10:32:53;;;;;;;0.98;0.88;;;33.20;43.50;;;;;;4881436;29;20035;-75
2022/07/12 10:35:24;;;;;;;3.05;0.70;;;32.70;41.90;;;;;;4902046;29;20047;-74
2022/07/12 10:38:11;;;;;;;2.30;0.70;;;30.90;43.90;;;;;;4876977;29;20382;-75
2022/07/12 10:40:43;;;;;;;1.40;0.73;;;30.40;45.60;;;;;;4899960;29;20818;-75
2022/07/12 10:43:11;;;;;;;2.47;0.75;;;30.40;45.30;;;;;;4898467;29;20036;-75
2022/07/12 10:45:38;;;;;;;1.63;0.70;;;29.60;45.50;;;;;;4896911;29;20024;-76
2022/07/12 10:48:05;;;;;;;1.80;0.70;;;29.40;45.90;;;;;;4900611;29;20040;-76
2022/07/12 10:50:48;;;;;;;0.73;0.50;;;29.70;46.30;;;;;;4900062;29;20862;-76
2022/07/12 10:53:22;;;;;;;2.67;0.63;;;29.80;46.00;;;;;;4901026;29;20099;-76
2022/07/12 10:56:06;;;;;;;0.82;0.50;;;29.40;46.30;;;;;;4898221;29;20741;-76
2022/07/12 10:58:43;;;;;;;1.50;0.90;;;28.30;47.70;;;;;;4882531;29;20106;-74
2022/07/12 11:01:12;;;;;;;1.40;0.95;;;28.00;47.90;;;;;;4879185;29;20063;-74
2022/07/12 11:03:42;;;;;;;1.17;0.55;;;27.50;48.60;;;;;;4900122;29;20063;-74
2022/07/12 11:06:13;;;;;;;1.67;1.10;;;26.90;49.70;;;;;;4877604;29;20024;-74
2022/07/12 11:08:52;;;;;;;1.42;0.80;;;26.50;49.60;;;;;;4899698;29;20025;-73
2022/07/12 11:11:21;;;;;;;1.63;0.60;;;25.90;49.90;;;;;;4896886;29;20020;-74
2022/07/12 11:13:49;;;;;;;2.10;0.80;;;25.30;50.40;;;;;;4901027;29;20016;-74
2022/07/12 11:16:16;;;;;;;1.75;0.63;;;25.20;51.20;;;;;;4900546;29;20044;-74
2022/07/12 11:18:43;;;;;;;3.17;0.85;;;25.10;51.40;;;;;;4881837;29;20024;-74
2022/07/12 11:21:09;;;;;;;3.08;2.08;;;24.90;52.00;;;;;;4882485;29;20067;-74
2022/07/12 11:23:35;;;;;;;2.40;1.20;;;24.80;52.60;;;;;;4895527;29;20490;-74
2022/07/12 11:26:02;;;;;;;5.40;4.28;;;24.60;53.30;;;;;;4900475;29;20024;-74
2022/07/12 11:28:31;;;;;;;2.35;0.77;;;24.50;53.40;;;;;;4895377;29;20076;-75
2022/07/12 11:31:10;;;;;;;2.17;0.75;;;24.40;54.40;;;;;;4888073;29;20043;-74
2022/07/12 11:33:40;;;;;;;1.10;0.75;;;24.30;53.90;;;;;;4882691;29;20077;-74
2022/07/12 11:36:09;;;;;;;1.60;0.90;;;24.00;54.00;;;;;;4882358;29;20023;-74
2022/07/12 11:38:36;;;;;;;1.15;0.57;;;23.80;54.90;;;;;;4895340;29;20024;-74
2022/07/12 11:41:07;;;;;;;1.83;0.85;;;23.80;54.90;;;;;;4899528;29;20339;-74
2022/07/12 11:43:33;;;;;;;1.65;0.70;;;23.80;55.10;;;;;;4882601;29;20156;-74
2022/07/12 11:46:06;;;;;;;3.20;0.90;;;23.80;54.50;;;;;;4899985;29;20401;-73
2022/07/12 11:48:36;;;;;;;1.40;0.70;;;23.70;55.20;;;;;;4881462;29;20032;-74
2022/07/12 11:51:05;;;;;;;1.10;0.70;;;23.80;55.00;;;;;;4881197;29;20418;-74
2022/07/12 11:53:32;;;;;;;1.65;0.80;;;24.20;54.60;;;;;;4901193;29;20036;-74
2022/07/12 11:55:59;;;;;;;3.80;0.88;;;24.30;53.90;;;;;;4897235;29;20024;-75
2022/07/12 11:58:29;;;;;;;1.83;0.70;;;24.90;53.90;;;;;;4894529;29;20032;-74
2022/07/12 12:00:55;;;;;;;0.90;0.70;;;25.40;52.70;;;;;;4879304;29;20028;-69
2022/07/12 12:03:22;;;;;;;1.35;0.82;;;25.20;52.40;;;;;;4873217;29;20043;-68
2022/07/12 12:05:53;;;;;;;0.57;0.57;;;25.10;53.00;;;;;;4877242;29;20088;-69
2022/07/12 12:08:19;;;;;;;2.22;0.73;;;25.40;53.20;;;;;;4893828;29;20107;-68
2022/07/12 12:10:58;;;;;;;0.82;0.60;;;25.40;53.00;;;;;;4894566;29;20116;-68
2022/07/12 12:13:27;;;;;;;4.15;0.90;;;25.10;53.10;;;;;;4898351;29;20027;-72
2022/07/12 12:16:01;;;;;;;1.70;1.00;;;25.10;53.60;;;;;;4896560;29;20024;-73
2022/07/12 12:18:35;;;;;;;1.23;0.80;;;25.00;53.60;;;;;;4897077;29;20852;-73
2022/07/12 12:21:04;;;;;;;2.22;0.73;;;24.90;54.10;;;;;;4894829;29;20047;-73
2022/07/12 12:23:30;;;;;;;0.82;0.70;;;24.70;54.40;;;;;;4876128;29;20024;-73
2022/07/12 12:26:08;;;;;;;;;;;24.50;54.90;;;;;;4897181;29;20035;-73
2022/07/12 12:28:44;;;;;;;1.17;0.82;;;24.30;55.00;;;;;;4900090;29;19915;-72
2022/07/12 12:31:13;;;;;;;2.50;0.77;;;24.10;55.30;;;;;;4879406;29;20702;-73
2022/07/12 12:33:39;;;;;;;1.55;0.70;;;24.00;55.50;;;;;;4901963;29;20036;-73
2022/07/12 12:36:21;;;;;;;2.00;0.80;;;24.00;56.00;;;;;;4878603;29;20048;-73
2022/07/12 12:38:51;;;;;;;0.65;0.50;;;23.80;56.20;;;;;;4898768;29;20048;-75
2022/07/12 12:41:17;;;;;;;2.00;0.93;;;23.70;55.80;;;;;;4879181;29;20061;-73
2022/07/12 12:43:44;;;;;;;1.60;0.88;;;23.80;56.30;;;;;;4899890;29;20031;-73
2022/07/12 12:46:10;;;;;;;1.25;0.73;;;23.70;56.40;;;;;;4895124;29;20778;-73
2022/07/12 12:48:36;;;;;;;1.17;0.60;;;24.00;56.20;;;;;;4880268;29;20032;-73
2022/07/12 12:51:09;;;;;;;;;;;24.10;55.30;;;;;;4881191;29;20046;-73
2022/07/12 12:53:36;;;;;;;1.20;0.50;;;24.40;54.90;;;;;;4900655;29;19907;-73
2022/07/12 12:56:07;;;;;;;1.05;0.50;;;24.20;54.10;;;;;;4901462;29;20024;-73
2022/07/12 12:58:33;;;;;;;1.15;0.57;;;24.40;55.30;;;;;;4885364;29;20039;-73
2022/07/12 13:00:58;;;;;;;0.82;0.77;;;24.70;54.80;;;;;;4902367;29;20036;-72
2022/07/12 13:03:24;;;;;;;0.60;0.60;;;24.90;54.10;;;;;;4902368;29;20123;-72
2022/07/12 13:05:50;;;;;;;1.58;0.80;;;24.90;54.10;;;;;;4892414;29;20036;-72
2022/07/12 13:08:17;;;;;;;1.48;0.80;;;25.00;53.90;;;;;;4882157;29;20032;-72
2022/07/12 13:10:45;;;;;;;1.73;0.73;;;24.80;54.20;;;;;;4885865;29;20032;-72
2022/07/12 13:13:14;;;;;;;0.60;0.40;;;24.70;54.80;;;;;;4896670;29;20032;-72
2022/07/12 13:15:41;;;;;;;3.17;0.85;;;24.70;54.80;;;;;;4883203;29;20103;-72
2022/07/12 13:18:07;;;;;;;3.42;0.80;;;24.80;54.70;;;;;;4896792;29;20036;-73
2022/07/12 13:20:33;;;;;;;0.93;0.68;;;24.70;54.80;;;;;;4900218;29;20437;-72
2022/07/12 13:23:00;;;;;;;;;;;24.60;55.30;;;;;;4906323;29;20103;-72
2022/07/12 13:25:25;;;;;;;0.98;0.60;;;24.40;55.40;;;;;;4902158;29;19949;-72
2022/07/12 13:27:52;;;;;;;3.83;0.70;;;24.30;55.40;;;;;;4901185;29;20131;-73
2022/07/12 13:30:19;;;;;;;2.20;0.77;;;24.40;55.40;;;;;;4895730;29;20060;-72
2022/07/12 13:32:45;;;;;;;1.63;0.77;;;24.60;55.90;;;;;;4900284;29;20038;-72
2022/07/12 13:35:12;;;;;;;1.60;1.17;;;24.80;55.30;;;;;;4883068;29;20063;-72
2022/07/12 13:37:40;;;;;;;1.73;0.77;;;25.10;55.20;;;;;;4900454;29;20027;-66
2022/07/12 13:40:16;;;;;;;2.45;1.05;;;25.10;54.60;;;;;;4884945;29;21195;-66
2022/07/12 13:42:44;;;;;;;2.60;0.88;;;25.20;55.10;;;;;;4900145;29;20028;-67
2022/07/12 13:45:14;;;;;;;1.08;0.60;;;25.20;53.70;;;;;;4900342;29;20036;-67
2022/07/12 13:47:40;;;;;;;2.33;1.00;;;25.00;54.20;;;;;;4897399;29;20159;-67
2022/07/12 13:50:07;;;;;;;0.68;0.68;;;24.90;54.10;;;;;;4898852;29;21001;-67
2022/07/12 13:52:32;;;;;;;3.55;1.25;;;24.70;55.10;;;;;;4899038;29;20031;-67
2022/07/12 13:54:58;;;;;;;1.77;0.60;;;24.70;54.90;;;;;;4898769;29;20024;-66